createdAt,value
2022-09-03T00:00:35.318Z,99.90
2022-09-03T00:03:15.838Z,99.90
2022-09-03T00:05:50.156Z,99.90
2022-09-03T00:08:25.395Z,99.90
2022-09-03T00:11:01.093Z,99.90
2022-09-03T00:13:35.353Z,99.90
2022-09-03T00:16:11.635Z,99.90
2022-09-03T00:18:50.401Z,99.90
2022-09-03T00:21:27.311Z,99.90
2022-09-03T00:23:59.488Z,99.90
2022-09-03T00:26:35.668Z,99.90
2022-09-03T00:29:11.732Z,99.90
2022-09-03T00:31:45.001Z,99.90
2022-09-03T00:34:18.511Z,99.90
2022-09-03T00:36:48.727Z,99.90
2022-09-03T00:39:20.884Z,99.90
2022-09-03T00:42:11.955Z,99.90
2022-09-03T00:44:55.469Z,99.90
2022-09-03T00:47:31.768Z,99.90
2022-09-03T00:50:09.764Z,99.90
2022-09-03T00:52:52.856Z,99.90
2022-09-03T00:55:32.295Z,99.90
2022-09-03T00:58:32.626Z,99.90
2022-09-03T01:01:06.990Z,99.90
2022-09-03T01:03:45.694Z,99.90
2022-09-03T01:06:21.145Z,99.90
2022-09-03T01:09:05.143Z,99.90
2022-09-03T01:11:47.465Z,99.90
2022-09-03T01:14:31.650Z,99.90
2022-09-03T01:17:07.194Z,99.90
2022-09-03T01:20:00.778Z,99.90
2022-09-03T01:23:05.204Z,99.90
2022-09-03T01:25:48.044Z,99.90
2022-09-03T01:28:35.185Z,99.90
2022-09-03T01:31:14.365Z,99.90
2022-09-03T01:33:51.973Z,99.90
2022-09-03T01:36:33.153Z,99.90
2022-09-03T01:39:05.140Z,99.90
2022-09-03T01:42:03.461Z,99.90
2022-09-03T01:44:45.020Z,99.90
2022-09-03T01:47:24.253Z,99.90
2022-09-03T01:50:00.156Z,99.90
2022-09-03T01:52:44.709Z,99.90
2022-09-03T01:55:27.069Z,99.90
2022-09-03T01:58:00.389Z,99.90
2022-09-03T02:00:34.657Z,99.90
2022-09-03T02:03:07.355Z,99.90
2022-09-03T02:05:37.816Z,99.90
2022-09-03T02:08:09.817Z,99.90
2022-09-03T02:10:43.689Z,99.90
2022-09-03T02:13:16.598Z,99.90
2022-09-03T02:15:50.402Z,99.90
2022-09-03T02:18:25.494Z,99.90
2022-09-03T02:20:56.576Z,99.90
2022-09-03T02:23:28.352Z,99.90
2022-09-03T02:26:00.454Z,99.90
2022-09-03T02:28:32.292Z,99.90
2022-09-03T02:31:03.311Z,99.90
2022-09-03T02:33:34.362Z,99.90
2022-09-03T02:36:07.232Z,99.90
2022-09-03T02:38:37.016Z,99.90
2022-09-03T02:41:06.762Z,99.90
2022-09-03T02:43:43.212Z,99.90
2022-09-03T02:46:19.923Z,99.90
2022-09-03T02:48:49.463Z,99.90
2022-09-03T02:51:19.704Z,99.90
2022-09-03T02:53:49.034Z,99.90
2022-09-03T02:56:20.865Z,99.90
2022-09-03T02:58:50.198Z,99.90
2022-09-03T03:01:24.130Z,99.90
2022-09-03T03:03:54.561Z,99.90
2022-09-03T03:06:24.231Z,99.90
2022-09-03T03:08:56.629Z,99.90
2022-09-03T03:11:27.714Z,99.90
2022-09-03T03:13:57.171Z,99.90
2022-09-03T03:16:28.293Z,99.90
2022-09-03T03:18:57.988Z,99.90
2022-09-03T03:21:28.133Z,99.90
2022-09-03T03:23:57.702Z,99.90
2022-09-03T03:26:27.127Z,99.90
2022-09-03T03:28:58.504Z,99.90
2022-09-03T03:31:29.718Z,99.90
2022-09-03T03:34:02.354Z,99.90
2022-09-03T03:36:33.459Z,99.90
2022-09-03T03:39:04.060Z,99.90
2022-09-03T03:41:34.765Z,99.90
2022-09-03T03:44:06.705Z,99.90
2022-09-03T03:46:39.179Z,99.90
2022-09-03T03:49:12.085Z,99.90
2022-09-03T03:51:41.972Z,99.90
2022-09-03T03:54:12.066Z,99.90
2022-09-03T03:56:55.754Z,99.90
2022-09-03T03:59:26.085Z,99.90
2022-09-03T04:01:58.632Z,99.90
2022-09-03T04:04:28.761Z,99.90
2022-09-03T04:06:58.286Z,99.90
2022-09-03T04:09:27.769Z,99.90
2022-09-03T04:11:58.426Z,99.90
2022-09-03T04:14:28.009Z,99.90
2022-09-03T04:16:59.814Z,99.90
2022-09-03T04:19:30.620Z,99.90
2022-09-03T04:22:00.337Z,99.90
2022-09-03T04:24:30.068Z,99.90
2022-09-03T04:26:59.528Z,99.90
2022-09-03T04:29:31.627Z,99.90
2022-09-03T04:32:21.323Z,99.90
2022-09-03T04:34:51.338Z,99.90
2022-09-03T04:37:21.042Z,99.90
2022-09-03T04:39:50.583Z,99.90
2022-09-03T04:42:20.468Z,99.90
2022-09-03T04:44:49.909Z,99.90
2022-09-03T04:47:21.154Z,99.90
2022-09-03T04:49:50.786Z,99.90
2022-09-03T04:52:20.970Z,99.90
2022-09-03T04:54:50.468Z,99.90
2022-09-03T04:57:20.589Z,99.90
2022-09-03T04:59:49.954Z,99.90
2022-09-03T05:02:21.856Z,99.90
2022-09-03T05:04:52.562Z,99.90
2022-09-03T05:07:22.105Z,99.90
2022-09-03T05:09:51.732Z,99.90
2022-09-03T05:12:23.042Z,99.90
2022-09-03T05:14:52.451Z,99.90
2022-09-03T05:17:24.045Z,99.90
2022-09-03T05:19:53.133Z,99.90
2022-09-03T05:22:23.274Z,99.90
2022-09-03T05:24:52.734Z,99.90
2022-09-03T05:27:22.026Z,99.90
2022-09-03T05:29:51.651Z,99.90
2022-09-03T05:32:21.094Z,99.90
2022-09-03T05:34:52.110Z,99.90
2022-09-03T05:37:23.521Z,99.90
2022-09-03T05:39:52.775Z,99.90
2022-09-03T05:42:22.281Z,99.90
2022-09-03T05:44:52.921Z,99.90
2022-09-03T05:47:22.336Z,99.90
2022-09-03T05:49:53.125Z,99.90
2022-09-03T05:52:23.813Z,99.90
2022-09-03T05:54:53.146Z,99.90
2022-09-03T05:57:22.609Z,99.90
2022-09-03T05:59:52.930Z,99.90
2022-09-03T06:02:22.332Z,99.90
2022-09-03T06:04:53.530Z,99.90
2022-09-03T06:07:23.485Z,99.90
2022-09-03T06:09:52.810Z,99.90
2022-09-03T06:12:22.165Z,99.90
2022-09-03T06:14:52.467Z,99.90
2022-09-03T06:17:21.947Z,99.90
2022-09-03T06:19:52.897Z,99.90
2022-09-03T06:22:25.257Z,99.90
2022-09-03T06:24:56.202Z,99.90
2022-09-03T06:27:26.236Z,99.90
2022-09-03T06:29:57.558Z,99.90
2022-09-03T06:32:29.624Z,99.90
2022-09-03T06:35:00.581Z,99.90
2022-09-03T06:37:30.503Z,99.90
2022-09-03T06:39:59.928Z,99.90
2022-09-03T06:42:30.137Z,99.90
2022-09-03T06:44:59.901Z,99.90
2022-09-03T06:47:30.166Z,99.90
2022-09-03T06:50:02.300Z,99.90
2022-09-03T06:52:32.314Z,99.90
2022-09-03T06:55:01.636Z,99.90
2022-09-03T06:57:31.197Z,99.90
2022-09-03T07:00:03.249Z,99.90
2022-09-03T07:02:33.980Z,99.90
2022-09-03T07:05:05.709Z,99.90
2022-09-03T07:07:38.992Z,99.90
2022-09-03T07:10:10.296Z,99.90
2022-09-03T07:12:39.617Z,99.90
2022-09-03T07:15:10.226Z,99.90
2022-09-03T07:17:40.196Z,99.90
2022-09-03T07:20:11.845Z,99.90
2022-09-03T07:22:41.801Z,99.90
2022-09-03T07:25:11.848Z,99.90
2022-09-03T07:27:41.300Z,99.90
2022-09-03T07:30:12.677Z,99.90
2022-09-03T07:32:42.356Z,99.90
2022-09-03T07:35:14.096Z,99.90
2022-09-03T07:37:44.204Z,99.90
2022-09-03T07:40:14.337Z,99.90
2022-09-03T07:42:43.819Z,99.90
2022-09-03T07:45:13.749Z,99.90
2022-09-03T07:47:50.520Z,99.90
2022-09-03T07:50:21.426Z,99.90
2022-09-03T07:52:51.016Z,99.90
2022-09-03T07:55:20.377Z,99.90
2022-09-03T07:57:49.695Z,99.90
2022-09-03T08:00:19.418Z,99.90
2022-09-03T08:02:48.808Z,99.90
2022-09-03T08:05:19.478Z,99.90
2022-09-03T08:07:51.300Z,99.90
2022-09-03T08:10:21.673Z,99.90
2022-09-03T08:12:51.688Z,99.90
2022-09-03T08:15:21.077Z,99.90
2022-09-03T08:17:50.574Z,99.90
2022-09-03T08:20:20.994Z,99.90
2022-09-03T08:22:51.810Z,99.90
2022-09-03T08:25:21.898Z,99.90
2022-09-03T08:27:51.255Z,99.90
2022-09-03T08:30:21.865Z,99.90
2022-09-03T08:32:51.565Z,99.90
2022-09-03T08:35:21.838Z,99.90
2022-09-03T08:37:56.829Z,99.90
2022-09-03T08:40:27.190Z,99.90
2022-09-03T08:43:09.749Z,99.90
2022-09-03T08:45:39.796Z,99.90
2022-09-03T08:48:15.311Z,99.90
2022-09-03T08:50:50.361Z,99.90
2022-09-03T08:53:27.213Z,99.90
2022-09-03T08:56:04.641Z,99.90
2022-09-03T08:58:38.598Z,99.90
2022-09-03T09:01:17.777Z,99.90
2022-09-03T09:03:55.298Z,99.90
2022-09-03T09:06:34.736Z,99.90
2022-09-03T09:09:15.277Z,99.90
2022-09-03T09:11:52.198Z,99.90
2022-09-03T09:14:32.494Z,99.90
2022-09-03T09:17:10.280Z,99.90
2022-09-03T09:19:48.966Z,99.90
2022-09-03T09:22:29.142Z,99.90
2022-09-03T09:25:03.919Z,99.90
2022-09-03T09:27:34.970Z,99.90
2022-09-03T09:30:07.717Z,99.90
2022-09-03T09:32:38.713Z,99.90
2022-09-03T09:35:11.722Z,99.90
2022-09-03T09:37:50.326Z,99.90
2022-09-03T09:40:33.409Z,99.90
2022-09-03T09:43:16.297Z,99.90
2022-09-03T09:45:47.357Z,99.90
2022-09-03T09:48:23.998Z,99.90
2022-09-03T09:51:07.231Z,99.90
2022-09-03T09:53:37.653Z,99.90
2022-09-03T09:56:10.053Z,99.90
2022-09-03T09:58:40.338Z,99.90
2022-09-03T10:01:14.895Z,99.90
2022-09-03T10:03:55.602Z,99.90
2022-09-03T10:06:44.478Z,99.90
2022-09-03T10:09:17.369Z,99.90
2022-09-03T10:11:52.350Z,99.90
2022-09-03T10:14:27.468Z,99.90
2022-09-03T10:17:04.302Z,99.90
2022-09-03T10:19:43.246Z,99.90
2022-09-03T10:22:20.636Z,99.90
2022-09-03T10:25:00.704Z,99.90
2022-09-03T10:27:32.011Z,99.90
2022-09-03T10:30:03.118Z,99.90
2022-09-03T10:32:47.685Z,99.90
2022-09-03T10:35:28.648Z,99.90
2022-09-03T10:38:06.694Z,99.90
2022-09-03T10:40:41.286Z,99.90
2022-09-03T10:43:38.834Z,99.90
2022-09-03T10:46:13.435Z,99.90
2022-09-03T10:48:57.989Z,99.90
2022-09-03T10:51:34.316Z,99.90
2022-09-03T10:54:27.092Z,99.90
2022-09-03T10:57:05.477Z,98.90
2022-09-03T10:59:51.485Z,96.70
2022-09-03T11:02:38.023Z,93.00
2022-09-03T11:05:11.081Z,92.80
2022-09-03T11:07:44.683Z,91.40
2022-09-03T11:10:18.800Z,90.60
2022-09-03T11:12:56.676Z,90.00
2022-09-03T11:15:32.878Z,87.50
2022-09-03T11:18:09.984Z,87.40
2022-09-03T11:20:42.490Z,89.50
2022-09-03T11:23:15.241Z,90.30
2022-09-03T11:25:49.225Z,92.00
2022-09-03T11:28:28.981Z,92.70
2022-09-03T11:31:14.057Z,90.80
2022-09-03T11:33:48.021Z,89.10
2022-09-03T11:36:29.074Z,89.30
2022-09-03T11:38:58.941Z,90.90
2022-09-03T11:41:29.642Z,90.30
2022-09-03T11:44:03.909Z,89.20
2022-09-03T11:46:35.848Z,87.00
2022-09-03T11:49:13.726Z,86.50
2022-09-03T11:51:45.295Z,86.00
2022-09-03T11:54:27.842Z,85.20
2022-09-03T11:57:14.194Z,86.50
2022-09-03T11:59:45.662Z,85.90
2022-09-03T12:02:29.520Z,85.60
2022-09-03T12:05:14.639Z,88.00
2022-09-03T12:07:56.530Z,89.40
2022-09-03T12:10:37.261Z,85.20
2022-09-03T12:13:25.292Z,84.90
2022-09-03T12:16:29.137Z,84.50
2022-09-03T12:19:06.397Z,83.50
2022-09-03T12:21:42.846Z,81.20
2022-09-03T12:24:15.680Z,81.40
2022-09-03T12:26:45.777Z,80.90
2022-09-03T12:29:27.957Z,80.60
2022-09-03T12:31:58.954Z,79.80
2022-09-03T12:34:34.191Z,77.90
2022-09-03T12:37:03.822Z,77.70
2022-09-03T12:42:27.564Z,76.30
2022-09-03T12:44:57.345Z,76.40
2022-09-03T12:47:36.480Z,75.60
2022-09-03T12:50:11.527Z,75.50
2022-09-03T12:52:43.633Z,75.20
2022-09-03T12:55:28.085Z,73.50
2022-09-03T12:58:02.801Z,73.90
2022-09-03T13:00:35.443Z,74.60
2022-09-03T13:03:09.119Z,76.00
2022-09-03T13:05:47.220Z,74.40
2022-09-03T13:08:20.381Z,73.90
2022-09-03T13:10:55.201Z,74.00
2022-09-03T13:13:27.367Z,75.00
2022-09-03T13:16:20.745Z,75.40
2022-09-03T13:18:56.289Z,71.70
2022-09-03T13:21:35.778Z,72.10
2022-09-03T13:24:21.512Z,70.20
2022-09-03T13:27:01.164Z,70.70
2022-09-03T13:29:49.667Z,70.20
2022-09-03T13:32:34.308Z,71.60
2022-09-03T13:35:15.213Z,71.90
2022-09-03T13:37:51.026Z,72.00
2022-09-03T13:40:26.120Z,72.40
2022-09-03T13:43:03.004Z,71.20
2022-09-03T13:45:39.895Z,71.00
2022-09-03T13:48:32.722Z,72.60
2022-09-03T13:51:10.522Z,72.80
2022-09-03T13:53:50.809Z,74.50
2022-09-03T13:56:27.796Z,75.90
2022-09-03T13:59:03.828Z,76.30
2022-09-03T14:01:48.027Z,76.50
2022-09-03T14:04:24.521Z,77.60
2022-09-03T14:07:02.425Z,78.90
2022-09-03T14:09:41.645Z,79.20
2022-09-03T14:12:18.857Z,79.20
2022-09-03T14:14:57.094Z,80.80
2022-09-03T14:17:38.465Z,80.20
2022-09-03T14:20:13.857Z,81.90
2022-09-03T14:22:53.564Z,83.70
2022-09-03T14:25:27.225Z,85.50
2022-09-03T14:27:57.897Z,86.00
2022-09-03T14:30:39.789Z,85.10
2022-09-03T14:33:18.593Z,84.40
2022-09-03T14:36:00.558Z,84.10
2022-09-03T14:38:59.818Z,85.00
2022-09-03T14:41:56.054Z,85.60
2022-09-03T14:44:47.994Z,85.40
2022-09-03T14:47:32.645Z,84.70
2022-09-03T14:50:24.390Z,85.40
2022-09-03T14:53:23.273Z,85.40
2022-09-03T14:56:05.583Z,85.30
2022-09-03T14:58:54.553Z,84.40
2022-09-03T15:01:37.619Z,83.40
2022-09-03T15:04:31.577Z,82.00
2022-09-03T15:07:28.043Z,83.30
2022-09-03T15:10:14.028Z,82.90
2022-09-03T15:12:48.450Z,82.70
2022-09-03T15:15:25.037Z,82.80
2022-09-03T15:18:09.240Z,80.90
2022-09-03T15:20:51.382Z,80.40
2022-09-03T15:23:42.746Z,79.40
2022-09-03T15:26:28.010Z,81.20
2022-09-03T15:29:11.680Z,82.00
2022-09-03T15:31:52.299Z,81.60
2022-09-03T15:34:32.641Z,82.30
2022-09-03T15:37:10.229Z,82.80
2022-09-03T15:39:44.786Z,83.60
2022-09-03T15:42:24.199Z,82.90
2022-09-03T15:44:56.604Z,82.60
2022-09-03T15:47:52.843Z,83.10
2022-09-03T15:50:38.681Z,83.40
2022-09-03T15:53:25.710Z,83.60
2022-09-03T15:56:16.721Z,84.50
2022-09-03T15:58:54.483Z,86.60
2022-09-03T16:01:32.671Z,87.30
2022-09-03T16:04:13.518Z,86.90
2022-09-03T16:06:54.167Z,86.40
2022-09-03T16:09:42.619Z,87.20
2022-09-03T16:12:23.405Z,86.70
2022-09-03T16:15:00.478Z,87.90
2022-09-03T16:17:35.799Z,89.10
2022-09-03T16:20:11.750Z,89.80
2022-09-03T16:22:48.738Z,90.50
2022-09-03T16:25:25.434Z,91.30
2022-09-03T16:28:07.621Z,91.80
2022-09-03T16:30:54.206Z,92.20
2022-09-03T16:33:33.911Z,92.60
2022-09-03T16:36:18.225Z,93.20
2022-09-03T16:38:55.348Z,93.60
2022-09-03T16:41:31.041Z,94.00
2022-09-03T16:44:11.097Z,94.90
2022-09-03T16:46:49.502Z,95.30
2022-09-03T16:49:37.370Z,95.50
2022-09-03T16:52:18.713Z,95.90
2022-09-03T16:55:05.436Z,96.00
2022-09-03T16:57:54.694Z,96.30
2022-09-03T17:00:24.403Z,96.60
2022-09-03T17:03:28.680Z,97.10
2022-09-03T17:06:28.761Z,97.80
2022-09-03T17:09:09.788Z,98.30
2022-09-03T17:11:52.746Z,98.70
2022-09-03T17:14:47.895Z,99.30
2022-09-03T17:17:27.345Z,99.60
2022-09-03T17:20:05.775Z,99.80
2022-09-03T17:22:46.772Z,99.90
2022-09-03T17:25:29.302Z,99.90
2022-09-03T17:28:22.784Z,99.90
2022-09-03T17:30:59.789Z,99.90
2022-09-03T17:33:54.397Z,99.90
2022-09-03T17:36:27.522Z,99.90
2022-09-03T17:39:32.944Z,99.90
2022-09-03T17:42:13.766Z,99.90
2022-09-03T17:44:59.781Z,99.90
2022-09-03T17:47:52.894Z,99.90
2022-09-03T17:50:26.153Z,99.90
2022-09-03T17:53:00.229Z,99.90
2022-09-03T17:55:35.655Z,99.90
2022-09-03T17:58:13.074Z,99.90
2022-09-03T18:00:53.170Z,99.90
2022-09-03T18:03:30.703Z,99.90
2022-09-03T18:06:02.386Z,99.90
2022-09-03T18:08:45.270Z,99.90
2022-09-03T18:11:20.546Z,99.90
2022-09-03T18:13:59.518Z,99.90
2022-09-03T18:16:30.569Z,99.90
2022-09-03T18:19:05.610Z,99.90
2022-09-03T18:21:56.461Z,99.90
2022-09-03T18:24:50.756Z,99.90
2022-09-03T18:27:42.996Z,99.90
2022-09-03T18:30:34.414Z,99.90
2022-09-03T18:33:20.693Z,99.90
2022-09-03T18:36:07.689Z,99.90
2022-09-03T18:38:56.581Z,99.90
2022-09-03T18:42:14.178Z,99.90
2022-09-03T18:45:21.449Z,99.90
2022-09-03T18:48:23.656Z,99.90
2022-09-03T18:51:16.958Z,99.90
2022-09-03T18:54:12.772Z,99.90
2022-09-03T18:57:05.445Z,99.90
2022-09-03T19:00:13.896Z,99.90
2022-09-03T19:03:13.261Z,99.90
2022-09-03T19:06:20.390Z,99.90
2022-09-03T19:09:16.638Z,99.90
2022-09-03T19:12:14.669Z,99.90
2022-09-03T19:15:12.608Z,99.90
2022-09-03T19:18:18.974Z,99.90
2022-09-03T19:21:16.326Z,99.90
2022-09-03T19:24:03.378Z,99.90
2022-09-03T19:27:02.909Z,99.90
2022-09-03T19:30:08.625Z,99.90
2022-09-03T19:33:05.393Z,99.90
2022-09-03T19:36:05.062Z,99.90
2022-09-03T19:39:07.169Z,99.90
2022-09-03T19:42:02.361Z,99.90
2022-09-03T19:45:07.551Z,99.90
2022-09-03T19:48:06.098Z,99.90
2022-09-03T19:50:57.705Z,99.90
2022-09-03T19:53:45.982Z,99.90
2022-09-03T19:56:43.855Z,99.90
2022-09-03T19:59:36.821Z,99.90
2022-09-03T20:02:23.568Z,99.90
2022-09-03T20:05:16.656Z,99.90
2022-09-03T20:08:04.475Z,99.90
2022-09-03T20:10:36.603Z,99.90
2022-09-03T20:13:11.720Z,99.90
2022-09-03T20:15:50.664Z,99.90
2022-09-03T20:18:32.281Z,99.90
2022-09-03T20:21:12.354Z,99.90
2022-09-03T20:23:49.247Z,99.90
2022-09-03T20:26:33.978Z,99.90
2022-09-03T20:29:27.264Z,99.90
2022-09-03T20:32:07.791Z,99.90
2022-09-03T20:34:45.861Z,99.90
2022-09-03T20:37:25.618Z,99.90
2022-09-03T20:40:10.456Z,99.90
2022-09-03T20:43:00.698Z,99.90
2022-09-03T20:45:45.766Z,99.90
2022-09-03T20:48:23.995Z,99.90
2022-09-03T20:51:01.463Z,99.90
2022-09-03T20:54:03.961Z,99.90
2022-09-03T20:56:48.313Z,99.90
2022-09-03T20:59:29.706Z,99.90
2022-09-03T21:02:09.406Z,99.90
2022-09-03T21:04:53.264Z,99.90
2022-09-03T21:07:39.965Z,99.90
2022-09-03T21:10:18.406Z,99.90
2022-09-03T21:12:55.848Z,99.90
2022-09-03T21:15:34.362Z,99.90
2022-09-03T21:18:15.041Z,99.90
2022-09-03T21:20:46.573Z,99.90
2022-09-03T21:23:23.677Z,99.90
2022-09-03T21:25:58.831Z,99.90
2022-09-03T21:28:37.581Z,99.90
2022-09-03T21:31:14.739Z,99.90
2022-09-03T21:33:50.499Z,99.90
2022-09-03T21:36:30.510Z,99.90
2022-09-03T21:39:10.997Z,99.90
2022-09-03T21:41:49.832Z,99.90
2022-09-03T21:44:23.903Z,99.90
2022-09-03T21:46:58.222Z,99.90
2022-09-03T21:49:34.189Z,99.90
2022-09-03T21:52:09.484Z,99.90
2022-09-03T21:54:39.356Z,99.90
2022-09-03T21:57:22.255Z,99.90
2022-09-03T22:00:18.121Z,99.90
2022-09-03T22:02:49.017Z,99.90
2022-09-03T22:05:20.769Z,99.90
2022-09-03T22:08:09.530Z,99.90
2022-09-03T22:10:52.238Z,99.90
2022-09-03T22:13:30.029Z,99.90
2022-09-03T22:16:04.634Z,99.90
2022-09-03T22:18:38.208Z,99.90
2022-09-03T22:21:19.444Z,99.90
2022-09-03T22:24:07.653Z,99.90
2022-09-03T22:26:45.922Z,99.90
2022-09-03T22:29:24.645Z,99.90
2022-09-03T22:31:59.710Z,99.90
2022-09-03T22:35:03.065Z,99.90
2022-09-03T22:37:52.606Z,99.90
2022-09-03T22:40:28.004Z,99.90
2022-09-03T22:43:08.810Z,99.90
2022-09-03T22:46:02.146Z,99.90
2022-09-03T22:48:57.761Z,99.90
2022-09-03T22:51:29.622Z,99.90
2022-09-03T22:54:14.952Z,99.90
2022-09-03T22:56:44.981Z,99.90
2022-09-03T22:59:19.829Z,99.90
2022-09-03T23:01:58.308Z,99.90
2022-09-03T23:04:31.659Z,99.90
2022-09-03T23:07:11.742Z,99.90
2022-09-03T23:09:46.044Z,99.90
2022-09-03T23:12:20.554Z,99.90
2022-09-03T23:14:54.575Z,99.90
2022-09-03T23:22:39.163Z,99.90
2022-09-03T23:25:15.157Z,99.90
2022-09-03T23:27:49.582Z,99.90
2022-09-03T23:30:19.258Z,99.90
2022-09-03T23:32:52.834Z,99.90
2022-09-03T23:35:26.576Z,99.90
2022-09-03T23:38:11.657Z,99.90
2022-09-03T23:40:49.603Z,99.90
2022-09-03T23:44:00.238Z,99.90
2022-09-03T23:46:36.101Z,99.90
2022-09-03T23:49:17.984Z,99.90
2022-09-03T23:52:02.310Z,99.90
2022-09-03T23:54:38.816Z,99.90
2022-09-03T23:57:19.916Z,99.90
